createdAt,value
2019-05-09T00:01:23.722Z,9.55
2019-05-09T00:03:53.813Z,8.58
2019-05-09T00:06:23.967Z,8.48
2019-05-09T00:08:53.267Z,8.68
2019-05-09T00:11:21.814Z,8.35
2019-05-09T00:13:50.317Z,8.78
2019-05-09T00:16:18.837Z,8.58
2019-05-09T00:18:47.249Z,8.33
2019-05-09T00:21:17.354Z,8.55
2019-05-09T00:23:45.774Z,8.73
2019-05-09T00:26:14.197Z,8.70
2019-05-09T00:28:44.603Z,8.08
2019-05-09T00:31:23.956Z,7.95
2019-05-09T00:33:54.204Z,8.18
2019-05-09T00:36:23.210Z,6.67
2019-05-09T00:38:53.704Z,6.30
2019-05-09T00:41:23.937Z,6.75
2019-05-09T00:43:54.408Z,6.30
2019-05-09T00:46:24.457Z,5.92
2019-05-09T00:49:00.552Z,5.58
2019-05-09T00:51:29.115Z,5.78
2019-05-09T00:53:57.544Z,5.47
2019-05-09T00:56:26.022Z,5.08
2019-05-09T00:58:54.482Z,5.67
2019-05-09T01:01:24.037Z,5.22
2019-05-09T01:03:53.532Z,4.97
2019-05-09T01:06:23.936Z,5.33
2019-05-09T01:08:53.906Z,5.50
2019-05-09T01:11:24.194Z,5.30
2019-05-09T01:13:54.321Z,5.28
2019-05-09T01:16:24.104Z,5.70
2019-05-09T01:18:59.188Z,5.70
2019-05-09T01:21:27.610Z,6.00
2019-05-09T01:23:56.033Z,5.60
2019-05-09T01:26:24.500Z,6.15
2019-05-09T01:28:53.953Z,5.58
2019-05-09T01:31:24.081Z,5.97
2019-05-09T01:33:54.607Z,5.10
2019-05-09T01:36:23.562Z,5.50
2019-05-09T01:38:53.995Z,5.55
2019-05-09T01:41:29.792Z,5.65
2019-05-09T01:43:53.628Z,5.87
2019-05-09T01:46:23.606Z,5.67
2019-05-09T01:48:53.980Z,5.97
2019-05-09T01:51:23.350Z,5.85
2019-05-09T01:53:53.636Z,6.37
2019-05-09T01:56:23.479Z,6.42
2019-05-09T02:02:33.852Z,5.95
2019-05-09T02:05:04.157Z,6.97
2019-05-09T02:07:33.258Z,6.45
2019-05-09T02:10:03.401Z,6.90
2019-05-09T02:12:33.895Z,7.20
2019-05-09T02:15:13.136Z,7.60
2019-05-09T02:18:00.703Z,7.60
2019-05-09T02:20:24.201Z,7.97
2019-05-09T02:22:54.303Z,8.28
2019-05-09T02:25:24.245Z,9.33
2019-05-09T02:27:55.115Z,9.53
2019-05-09T02:30:25.365Z,10.03
2019-05-09T02:32:54.749Z,10.90
2019-05-09T02:35:23.630Z,11.83
2019-05-09T02:37:52.053Z,11.38
2019-05-09T02:40:20.746Z,11.30
2019-05-09T02:42:49.363Z,11.33
2019-05-09T02:45:19.443Z,11.97
2019-05-09T02:47:49.017Z,12.75
2019-05-09T02:50:19.515Z,13.03
2019-05-09T02:52:48.811Z,14.05
2019-05-09T02:55:18.418Z,14.43
2019-05-09T02:57:49.129Z,14.93
2019-05-09T03:00:39.494Z,14.23
2019-05-09T03:03:10.631Z,15.32
2019-05-09T03:05:39.082Z,15.30
2019-05-09T03:08:09.016Z,16.00
2019-05-09T03:10:38.174Z,16.52
2019-05-09T03:13:09.116Z,17.02
2019-05-09T03:15:39.432Z,17.35
2019-05-09T03:18:08.964Z,18.02
2019-05-09T03:20:39.511Z,18.70
2019-05-09T03:23:09.172Z,18.67
2019-05-09T03:25:40.975Z,18.48
2019-05-09T03:28:28.581Z,19.67
2019-05-09T03:30:59.339Z,19.00
2019-05-09T03:33:29.631Z,18.95
2019-05-09T03:35:58.299Z,21.15
2019-05-09T03:38:28.418Z,20.43
2019-05-09T03:40:58.051Z,21.07
2019-05-09T03:43:27.552Z,21.60
2019-05-09T03:46:14.070Z,21.57
2019-05-09T03:48:47.708Z,21.52
2019-05-09T03:51:18.228Z,22.17
2019-05-09T03:53:48.246Z,22.93
2019-05-09T03:56:27.394Z,22.10
2019-05-09T03:58:57.858Z,22.73
2019-05-09T04:01:28.081Z,21.42
2019-05-09T04:03:58.433Z,22.17
2019-05-09T04:06:28.227Z,22.32
2019-05-09T04:08:58.522Z,22.82
2019-05-09T04:11:27.679Z,22.73
2019-05-09T04:13:58.625Z,20.55
2019-05-09T04:16:27.672Z,21.33
2019-05-09T04:18:58.154Z,21.07
2019-05-09T04:21:27.963Z,21.30
2019-05-09T04:23:58.450Z,21.10
2019-05-09T04:26:32.187Z,20.92
2019-05-09T04:29:00.616Z,21.85
2019-05-09T04:31:29.110Z,21.00
2019-05-09T04:33:57.839Z,20.72
2019-05-09T04:36:41.211Z,21.70
2019-05-09T04:39:21.516Z,21.77
2019-05-09T04:41:42.774Z,21.90
2019-05-09T04:44:19.247Z,22.17
2019-05-09T04:46:48.061Z,21.50
2019-05-09T04:49:18.535Z,22.25
2019-05-09T04:51:47.925Z,21.50
2019-05-09T04:54:17.760Z,21.82
2019-05-09T04:56:47.517Z,22.20
2019-05-09T04:59:17.913Z,21.97
2019-05-09T05:01:48.632Z,23.25
2019-05-09T05:04:18.123Z,23.32
2019-05-09T05:06:47.775Z,22.32
2019-05-09T05:09:20.504Z,22.20
2019-05-09T05:11:49.049Z,22.90
2019-05-09T05:14:22.909Z,24.10
2019-05-09T05:16:58.171Z,23.85
2019-05-09T05:19:25.671Z,23.92
2019-05-09T05:21:58.277Z,25.23
2019-05-09T05:24:31.935Z,23.67
2019-05-09T05:27:00.675Z,24.72
2019-05-09T05:29:29.110Z,24.67
2019-05-09T05:31:59.422Z,25.23
2019-05-09T05:34:31.933Z,25.77
2019-05-09T05:37:00.363Z,26.02
2019-05-09T05:39:29.010Z,25.50
2019-05-09T05:41:58.461Z,25.60
2019-05-09T05:44:28.350Z,25.77
2019-05-09T05:47:04.937Z,26.07
2019-05-09T05:49:33.362Z,26.48
2019-05-09T05:52:02.181Z,27.77
2019-05-09T05:54:30.767Z,27.93
2019-05-09T05:56:59.580Z,27.35
2019-05-09T05:59:28.750Z,28.45
2019-05-09T06:01:58.515Z,27.62
2019-05-09T06:04:27.629Z,28.98
2019-05-09T06:06:58.631Z,29.45
2019-05-09T06:09:28.012Z,28.90
2019-05-09T06:11:59.366Z,29.05
2019-05-09T06:14:28.598Z,30.07
2019-05-09T06:16:58.727Z,29.95
2019-05-09T06:19:28.666Z,29.23
2019-05-09T06:21:57.571Z,29.07
2019-05-09T06:24:29.699Z,28.67
2019-05-09T06:26:58.663Z,27.80
2019-05-09T06:29:28.582Z,28.52
2019-05-09T06:31:58.423Z,28.07
2019-05-09T06:34:27.899Z,27.55
2019-05-09T06:36:58.574Z,29.37
2019-05-09T06:39:28.519Z,28.75
2019-05-09T06:41:57.500Z,29.45
2019-05-09T06:44:37.499Z,28.98
2019-05-09T06:47:08.282Z,28.07
2019-05-09T06:49:38.700Z,27.47
2019-05-09T06:52:08.700Z,27.32
2019-05-09T06:54:41.334Z,27.60
2019-05-09T06:57:08.033Z,26.73
2019-05-09T06:59:38.179Z,25.45
2019-05-09T07:02:08.606Z,26.75
2019-05-09T07:04:41.498Z,26.90
2019-05-09T07:07:23.793Z,26.95
2019-05-09T07:09:58.594Z,28.12
2019-05-09T07:12:27.443Z,28.20
2019-05-09T07:14:57.951Z,29.30
2019-05-09T07:17:31.760Z,29.60
2019-05-09T07:19:58.861Z,30.35
2019-05-09T07:22:43.485Z,30.72
2019-05-09T07:25:18.469Z,31.02
2019-05-09T07:27:48.280Z,31.77
2019-05-09T07:30:34.475Z,33.05
2019-05-09T07:33:19.661Z,31.50
2019-05-09T07:35:48.681Z,31.50
2019-05-09T07:38:18.761Z,30.95
2019-05-09T07:40:47.870Z,29.95
2019-05-09T07:43:17.989Z,31.75
2019-05-09T07:46:08.876Z,30.43
2019-05-09T07:48:38.373Z,30.15
2019-05-09T07:51:07.864Z,31.45
2019-05-09T07:53:38.054Z,30.50
2019-05-09T07:56:07.891Z,31.65
2019-05-09T07:58:37.694Z,31.25
2019-05-09T08:01:08.641Z,31.15
2019-05-09T08:03:38.449Z,31.07
2019-05-09T08:06:08.810Z,30.43
2019-05-09T08:08:38.496Z,28.98
2019-05-09T08:11:08.800Z,30.57
2019-05-09T08:13:39.190Z,28.90
2019-05-09T08:16:12.408Z,27.87
2019-05-09T08:18:38.030Z,27.55
2019-05-09T08:21:08.410Z,26.65
2019-05-09T08:23:37.981Z,28.02
2019-05-09T08:26:08.794Z,27.40
2019-05-09T08:28:38.945Z,27.15
2019-05-09T08:31:08.225Z,25.62
2019-05-09T08:33:38.072Z,25.68
2019-05-09T08:36:08.707Z,25.00
2019-05-09T08:38:38.986Z,25.65
2019-05-09T08:41:09.335Z,23.55
2019-05-09T08:43:39.181Z,25.12
2019-05-09T08:46:08.086Z,25.27
2019-05-09T08:48:37.839Z,24.80
2019-05-09T08:51:09.017Z,23.87
2019-05-09T08:53:38.227Z,22.67
2019-05-09T08:56:08.964Z,24.05
2019-05-09T08:58:38.175Z,23.67
2019-05-09T09:01:09.728Z,23.65
2019-05-09T09:03:37.833Z,24.43
2019-05-09T09:06:08.345Z,22.42
2019-05-09T09:08:38.014Z,22.58
2019-05-09T09:11:08.641Z,21.95
2019-05-09T09:13:37.927Z,23.00
2019-05-09T09:16:18.008Z,20.88
2019-05-09T09:18:38.777Z,20.90
2019-05-09T09:21:08.129Z,20.23
2019-05-09T09:23:43.928Z,21.00
2019-05-09T09:26:08.125Z,21.00
2019-05-09T09:28:37.983Z,19.80
2019-05-09T09:31:08.200Z,20.88
2019-05-09T09:33:37.785Z,20.08
2019-05-09T09:36:08.719Z,19.30
2019-05-09T09:38:37.572Z,18.20
2019-05-09T09:41:11.402Z,18.20
2019-05-09T09:43:39.861Z,17.90
2019-05-09T09:46:14.333Z,18.02
2019-05-09T09:48:39.051Z,17.20
2019-05-09T09:51:08.144Z,16.73
2019-05-09T09:53:38.447Z,18.05
2019-05-09T09:56:08.642Z,17.30
2019-05-09T09:58:38.004Z,17.45
2019-05-09T10:01:23.704Z,16.67
2019-05-09T10:03:53.764Z,18.17
2019-05-09T10:06:22.228Z,16.50
2019-05-09T10:08:50.690Z,15.25
2019-05-09T10:11:19.127Z,15.43
2019-05-09T10:13:48.432Z,14.43
2019-05-09T10:16:34.848Z,15.53
2019-05-09T10:19:10.882Z,16.25
2019-05-09T10:21:40.994Z,15.98
2019-05-09T10:24:09.431Z,15.80
2019-05-09T10:26:39.117Z,16.35
2019-05-09T10:29:07.929Z,15.70
2019-05-09T10:31:39.033Z,15.78
2019-05-09T10:34:06.903Z,15.72
2019-05-09T10:36:35.462Z,15.20
2019-05-09T10:39:08.167Z,15.50
2019-05-09T10:41:37.624Z,15.65
2019-05-09T10:44:08.486Z,15.05
2019-05-09T10:46:56.825Z,13.45
2019-05-09T10:49:18.588Z,12.80
2019-05-09T10:51:48.545Z,12.10
2019-05-09T10:54:18.515Z,12.53
2019-05-09T10:56:48.723Z,11.83
2019-05-09T10:59:18.269Z,11.95
2019-05-09T11:01:49.436Z,11.25
2019-05-09T11:04:18.055Z,8.85
2019-05-09T11:06:46.498Z,8.05
2019-05-09T11:09:15.125Z,9.63
2019-05-09T11:11:43.961Z,9.23
2019-05-09T11:14:27.854Z,9.10
2019-05-09T11:16:46.506Z,7.55
2019-05-09T11:19:13.069Z,7.78
2019-05-09T11:21:41.507Z,8.00
2019-05-09T11:24:09.973Z,5.97
2019-05-09T11:26:39.930Z,5.58
2019-05-09T11:29:08.726Z,5.70
2019-05-09T11:31:38.482Z,4.90
2019-05-09T11:34:08.836Z,5.25
2019-05-09T11:36:38.202Z,6.62
2019-05-09T11:39:10.969Z,6.17
2019-05-09T11:41:39.716Z,5.15
2019-05-09T11:44:08.656Z,4.37
2019-05-09T11:46:38.270Z,4.20
2019-05-09T11:49:08.380Z,3.67
2019-05-09T11:51:37.050Z,3.90
2019-05-09T11:54:05.468Z,3.85
2019-05-09T11:56:33.923Z,3.00
2019-05-09T11:59:02.360Z,2.77
2019-05-09T12:01:32.422Z,2.90
2019-05-09T12:04:01.515Z,2.95
2019-05-09T12:06:29.935Z,3.08
2019-05-09T12:09:01.828Z,3.47
2019-05-09T12:11:30.324Z,2.50
2019-05-09T12:13:59.095Z,2.55
2019-05-09T12:16:28.088Z,2.17
2019-05-09T12:18:58.437Z,1.95
2019-05-09T12:21:28.180Z,4.45
2019-05-09T12:23:58.083Z,3.33
2019-05-09T12:26:29.097Z,1.92
2019-05-09T12:28:57.983Z,1.85
2019-05-09T12:31:28.761Z,1.50
2019-05-09T12:33:59.278Z,1.32
2019-05-09T12:36:28.590Z,1.32
2019-05-09T12:38:59.186Z,1.60
2019-05-09T12:41:31.371Z,1.82
2019-05-09T12:43:57.705Z,1.32
2019-05-09T12:46:28.180Z,1.22
2019-05-09T12:48:59.194Z,1.10
2019-05-09T12:51:28.262Z,1.20
2019-05-09T12:53:57.944Z,1.50
2019-05-09T12:56:28.421Z,1.50
2019-05-09T12:58:57.843Z,1.32
2019-05-09T13:01:29.547Z,1.70
2019-05-09T13:03:58.478Z,1.40
2019-05-09T13:06:29.273Z,1.50
2019-05-09T13:08:58.659Z,1.40
2019-05-09T13:11:28.223Z,1.50
2019-05-09T13:13:56.887Z,1.40
2019-05-09T13:16:42.792Z,1.25
2019-05-09T13:21:33.053Z,1.27
2019-05-09T13:24:02.230Z,1.30
2019-05-09T13:26:30.953Z,1.50
2019-05-09T13:28:59.704Z,1.20
2019-05-09T13:31:29.572Z,1.50
2019-05-09T13:33:58.554Z,1.60
2019-05-09T13:36:28.470Z,1.40
2019-05-09T13:39:04.176Z,1.65
2019-05-09T13:41:27.793Z,1.52
2019-05-09T13:43:59.335Z,1.50
2019-05-09T13:46:28.299Z,1.57
2019-05-09T13:49:08.174Z,1.37
2019-05-09T13:51:26.711Z,1.20
2019-05-09T13:53:55.362Z,1.40
2019-05-09T13:56:24.255Z,1.17
2019-05-09T13:58:52.807Z,1.17
2019-05-09T14:01:21.363Z,0.90
2019-05-09T14:03:49.859Z,1.12
2019-05-09T14:06:18.257Z,1.40
2019-05-09T14:08:49.034Z,1.32
2019-05-09T14:11:19.225Z,1.50
2019-05-09T14:13:48.706Z,1.37
2019-05-09T14:16:22.044Z,1.10
2019-05-09T14:18:48.617Z,1.30
2019-05-09T14:21:21.517Z,1.10
2019-05-09T14:24:01.171Z,1.32
2019-05-09T14:26:18.140Z,1.17
2019-05-09T14:28:48.895Z,1.20
2019-05-09T14:31:18.572Z,1.20
2019-05-09T14:33:47.767Z,1.20
2019-05-09T14:36:16.358Z,1.35
2019-05-09T14:38:44.898Z,1.15
2019-05-09T14:41:13.361Z,1.10
2019-05-09T14:43:41.873Z,1.17
2019-05-09T14:46:10.466Z,1.25
2019-05-09T17:48:18.415Z,1.20
2019-05-09T17:50:47.186Z,2.12
2019-05-09T17:53:17.997Z,2.02
2019-05-09T17:55:47.762Z,2.00
2019-05-09T17:58:27.106Z,2.30
2019-05-09T18:00:48.367Z,2.12
2019-05-09T18:03:18.227Z,2.02
2019-05-09T18:05:48.645Z,2.22
2019-05-09T18:08:18.755Z,2.10
2019-05-09T18:10:48.500Z,2.30
2019-05-09T18:13:23.651Z,2.50
2019-05-09T18:15:48.392Z,2.70
2019-05-09T18:18:18.472Z,2.80
2019-05-09T18:20:47.151Z,2.22
2019-05-09T18:23:17.607Z,2.50
2019-05-09T18:25:45.974Z,2.40
2019-05-09T18:28:17.296Z,2.27
2019-05-09T18:30:47.662Z,2.50
2019-05-09T18:33:22.930Z,2.45
2019-05-09T18:35:51.495Z,2.70
2019-05-09T18:38:27.911Z,2.37
2019-05-09T18:40:57.963Z,2.37
2019-05-09T18:43:27.429Z,2.30
2019-05-09T18:45:57.778Z,2.45
2019-05-09T18:48:27.818Z,2.67
2019-05-09T18:50:56.659Z,2.75
2019-05-09T18:53:25.254Z,2.90
2019-05-09T18:55:53.767Z,3.20
2019-05-09T18:58:22.207Z,2.70
2019-05-09T19:00:51.178Z,2.80
2019-05-09T19:03:19.689Z,2.70
2019-05-09T19:05:48.108Z,2.95
2019-05-09T19:08:16.542Z,2.83
2019-05-09T19:10:45.270Z,2.80
2019-05-09T19:13:13.732Z,2.85
2019-05-09T19:15:43.816Z,3.10
2019-05-09T19:18:13.976Z,3.08
2019-05-09T19:20:50.218Z,2.60
2019-05-09T19:23:18.929Z,2.87
2019-05-09T19:25:47.368Z,2.55
2019-05-09T19:28:15.782Z,2.83
2019-05-09T19:30:44.275Z,2.92
2019-05-09T19:33:12.665Z,2.90
2019-05-09T19:35:41.542Z,2.62
2019-05-09T19:38:09.988Z,2.70
2019-05-09T19:40:38.566Z,2.70
2019-05-09T19:43:06.994Z,2.98
2019-05-09T19:45:35.668Z,3.10
2019-05-09T19:48:04.094Z,3.02
2019-05-09T19:50:32.796Z,2.67
2019-05-09T19:53:01.533Z,2.75
2019-05-09T19:55:29.957Z,2.70
2019-05-09T19:57:58.386Z,2.75
2019-05-09T20:00:27.181Z,3.08
2019-05-09T20:02:55.608Z,2.92
2019-05-09T20:05:24.127Z,3.33
2019-05-09T20:07:52.604Z,3.45
2019-05-09T20:10:22.709Z,3.37
2019-05-09T20:13:09.064Z,3.22
2019-05-09T20:15:37.474Z,3.02
2019-05-09T20:18:05.911Z,3.62
2019-05-09T20:20:34.376Z,3.17
2019-05-09T20:23:02.782Z,3.50
2019-05-09T20:25:31.198Z,3.37
2019-05-09T20:28:00.558Z,2.92
2019-05-09T20:30:28.964Z,3.92
2019-05-09T20:32:57.376Z,3.77
2019-05-09T20:35:26.023Z,3.90
2019-05-09T20:37:54.628Z,3.50
2019-05-09T20:40:23.198Z,4.17
2019-05-09T20:42:51.849Z,3.92
2019-05-09T20:45:20.457Z,4.35
2019-05-09T20:47:49.202Z,4.00
2019-05-09T20:50:17.908Z,4.35
2019-05-09T20:52:46.508Z,3.92
2019-05-09T20:55:15.545Z,3.98
2019-05-09T20:57:44.374Z,3.70
2019-05-09T21:00:13.331Z,3.30
2019-05-09T21:02:42.296Z,3.42
2019-05-09T21:05:11.153Z,3.15
2019-05-09T21:07:39.760Z,3.10
2019-05-09T21:10:08.747Z,3.30
2019-05-09T21:12:37.359Z,2.30
2019-05-09T21:15:08.444Z,2.62
2019-05-09T21:17:37.331Z,2.80
2019-05-09T21:20:09.310Z,2.80
2019-05-09T21:25:07.406Z,2.65
2019-05-09T21:27:36.029Z,2.40
2019-05-09T21:30:10.509Z,2.30
2019-05-09T21:32:39.120Z,2.10
2019-05-09T21:35:08.106Z,2.52
2019-05-09T21:37:36.559Z,2.50
2019-05-09T21:40:08.736Z,2.52
2019-05-09T21:42:37.754Z,2.55
2019-05-09T21:45:09.548Z,2.37
2019-05-09T21:47:37.960Z,2.42
2019-05-09T21:50:07.247Z,2.70
2019-05-09T21:52:35.669Z,2.80
2019-05-09T21:55:05.084Z,2.47
2019-05-09T21:57:33.541Z,2.83
2019-05-09T22:00:02.183Z,2.62
2019-05-09T22:02:30.746Z,2.47
2019-05-09T22:04:59.302Z,2.55
2019-05-09T22:07:27.793Z,2.70
2019-05-09T22:09:56.211Z,2.80
2019-05-09T22:12:24.909Z,2.75
2019-05-09T22:14:53.350Z,2.50
2019-05-09T22:17:38.461Z,2.77
2019-05-09T22:20:12.077Z,2.70
2019-05-09T22:22:40.813Z,2.80
2019-05-09T22:25:09.970Z,2.67
2019-05-09T22:27:38.637Z,2.87
2019-05-09T22:30:10.578Z,2.87
2019-05-09T22:35:07.634Z,3.02
2019-05-09T22:37:36.061Z,3.15
2019-05-09T22:40:07.695Z,3.00
2019-05-09T22:42:36.177Z,2.72
2019-05-09T22:45:09.518Z,2.80
2019-05-09T22:47:38.180Z,2.62
2019-05-09T22:50:07.536Z,3.00
2019-05-09T22:52:35.961Z,3.42
2019-05-09T22:55:05.466Z,3.40
2019-05-09T22:57:33.889Z,3.45
2019-05-09T23:00:02.746Z,3.08
2019-05-09T23:02:31.536Z,3.58
2019-05-09T23:05:00.015Z,3.30
2019-05-09T23:07:28.494Z,3.02
2019-05-09T23:09:57.194Z,3.40
2019-05-09T23:12:25.624Z,3.45
2019-05-09T23:14:54.056Z,3.33
2019-05-09T23:17:22.517Z,3.17
2019-05-09T23:19:50.973Z,3.65
2019-05-09T23:22:20.068Z,3.20
2019-05-09T23:24:48.885Z,2.75
2019-05-09T23:27:19.196Z,2.35
2019-05-09T23:29:47.686Z,2.58
2019-05-09T23:32:20.744Z,2.75
2019-05-09T23:34:49.239Z,2.40
2019-05-09T23:37:17.683Z,3.05
2019-05-09T23:39:53.364Z,2.77
2019-05-09T23:42:21.756Z,2.50
2019-05-09T23:44:50.175Z,2.50
2019-05-09T23:47:18.640Z,2.75
2019-05-09T23:49:47.088Z,2.50
2019-05-09T23:52:15.574Z,2.80
2019-05-09T23:55:02.066Z,2.58
2019-05-09T23:57:48.509Z,2.50
